KAXV/AXV METAR and TAF weather

Enter ICAO airport designator
Station Type Date Time Source
KAXV METAR 2018/04/21 10:59 UTC NOAA

KAXV 211059Z AUTO 00000KT 7SM CLR 02/M04 A3046 RMK AO2


Station Type Date Time Source
KAXV Decoded METAR 2018/04/21 10:59 UTC NOAA

Station name not available
Apr 21, 2018 - 06:59 AM EDT / 2018.04.21 1059 UTC
Wind: Calm:0
Visibility: 7 mile(s):0
Sky conditions: clear
Temperature: 35 F (2 C)
Dew Point: 24 F (-4 C)
Relative Humidity: 64%
Pressure (altimeter): 30.46 in. Hg (1031 hPa)
ob: KAXV 211059Z AUTO 00000KT 7SM CLR 02/M04 A3046 RMK AO2
cycle: 11

Station Type Date Time Source
KAXV TAF UTC NOAA

Error!


Example: see airport list